Time;durP1;ratioP1;P1;durP2;ratioP2;P2;SDS_P1;SDS_P2;PMS_P1;PMS_P2;Temp;Humidity;BMP_temperature;BMP_pressure;BME280_temperature;BME280_humidity;BME280_pressure;Samples;Min_cycle;Max_cycle;Signal;HPM_P1;HPM_P2
2023/08/09 00:00:46;;;;;;;1999.90;999.90;;;12.60;99.90;;;;;;5041093;28;20040;-77
2023/08/09 00:03:12;;;;;;;1999.90;999.90;;;12.60;99.90;;;;;;5074219;28;20040;-77
2023/08/09 00:05:38;;;;;;;1999.90;999.90;;;12.60;99.90;;;;;;5040051;28;20055;-78
2023/08/09 00:08:03;;;;;;;1999.90;999.90;;;12.60;99.90;;;;;;5056458;28;20044;-77
2023/08/09 00:10:29;;;;;;;1999.90;999.90;;;12.60;99.90;;;;;;5040069;28;20040;-78
2023/08/09 00:12:55;;;;;;;1999.90;999.90;;;12.60;99.90;;;;;;5073809;28;20044;-77
2023/08/09 00:15:21;;;;;;;1999.90;999.90;;;12.60;99.90;;;;;;5040064;28;20048;-79
2023/08/09 00:17:47;;;;;;;1999.90;999.90;;;12.60;99.90;;;;;;5057238;28;20185;-78
2023/08/09 00:20:13;;;;;;;1999.90;999.90;;;12.60;99.90;;;;;;5056269;28;20472;-78
2023/08/09 00:22:42;;;;;;;1999.90;999.90;;;12.50;99.90;;;;;;5056271;28;20051;-77
2023/08/09 00:25:10;;;;;;;1999.90;999.90;;;12.50;99.90;;;;;;5053718;28;20056;-78
2023/08/09 00:27:37;;;;;;;1999.90;999.90;;;12.50;99.90;;;;;;5056313;28;20105;-77
2023/08/09 00:30:03;;;;;;;1999.90;999.90;;;12.50;99.90;;;;;;5056338;28;20048;-78
2023/08/09 00:32:29;;;;;;;1999.90;999.90;;;12.40;99.90;;;;;;5039575;28;20044;-79
2023/08/09 00:34:55;;;;;;;1999.90;999.90;;;12.40;99.90;;;;;;5055891;28;20269;-78
2023/08/09 00:37:21;;;;;;;1999.90;999.90;;;12.30;99.90;;;;;;5056161;28;20036;-78
2023/08/09 00:39:47;;;;;;;1999.90;999.90;;;12.30;99.90;;;;;;5022893;28;20103;-78
2023/08/09 00:42:12;;;;;;;1999.90;999.90;;;12.30;99.90;;;;;;5056111;28;20056;-78
2023/08/09 00:44:38;;;;;;;1999.90;999.90;;;12.20;99.90;;;;;;5040019;28;20048;-78
2023/08/09 00:47:09;;;;;;;1999.90;999.90;;;12.20;99.90;;;;;;5039479;28;20516;-78
2023/08/09 00:49:36;;;;;;;1999.90;999.90;;;12.20;99.90;;;;;;5056775;28;20357;-78
2023/08/09 00:52:03;;;;;;;1999.90;999.90;;;12.20;99.90;;;;;;5055853;28;20048;-77
2023/08/09 00:54:29;;;;;;;1999.90;999.90;;;12.10;99.90;;;;;;5073585;28;20059;-77
2023/08/09 00:56:55;;;;;;;1999.90;999.90;;;12.10;99.90;;;;;;5074080;28;20049;-77
2023/08/09 00:59:21;;;;;;;1999.90;999.90;;;12.10;99.90;;;;;;5073536;28;20044;-78
2023/08/09 01:01:46;;;;;;;1999.90;999.90;;;12.10;99.90;;;;;;5073453;28;20045;-77
2023/08/09 01:04:12;;;;;;;1999.90;999.90;;;12.10;99.90;;;;;;5073999;28;20041;-78
2023/08/09 01:06:48;;;;;;;1999.90;999.90;;;12.10;99.90;;;;;;5056469;28;20363;-78
2023/08/09 01:09:19;;;;;;;1999.90;999.90;;;12.00;99.90;;;;;;5056488;28;20426;-78
2023/08/09 01:11:52;;;;;;;1999.90;999.90;;;12.10;99.90;;;;;;5056589;28;20040;-78
2023/08/09 01:14:20;;;;;;;1999.90;999.90;;;12.00;99.90;;;;;;5056060;28;20079;-78
2023/08/09 01:16:46;;;;;;;1999.90;999.90;;;12.00;99.90;;;;;;5055748;28;20075;-77
2023/08/09 01:19:34;;;;;;;1999.90;999.90;;;12.00;99.90;;;;;;5055531;28;20041;-77
2023/08/09 01:22:06;;;;;;;1999.90;999.90;;;12.00;99.90;;;;;;5055810;28;20044;-77
2023/08/09 01:24:33;;;;;;;1999.90;999.90;;;12.30;99.90;;;;;;5053466;28;20083;-77
2023/08/09 01:26:59;;;;;;;1999.90;999.90;;;12.00;99.90;;;;;;5073119;28;20055;-77
2023/08/09 01:29:25;;;;;;;1999.90;999.90;;;12.00;99.90;;;;;;5073524;28;20044;-77
2023/08/09 01:31:51;;;;;;;1999.90;999.90;;;12.00;99.90;;;;;;5073132;28;20400;-77
2023/08/09 01:34:18;;;;;;;1999.90;999.90;;;12.00;99.90;;;;;;5055207;28;20048;-76
2023/08/09 01:36:50;;;;;;;1999.90;999.90;;;12.00;99.90;;;;;;5038769;28;20563;-77
2023/08/09 01:39:23;;;;;;;1999.90;999.90;;;12.00;99.90;;;;;;5055587;28;20442;-77
2023/08/09 01:41:49;;;;;;;1999.90;999.90;;;11.90;99.90;;;;;;5073710;28;20462;-78
2023/08/09 01:44:16;;;;;;;1999.90;999.90;;;12.00;99.90;;;;;;5055413;28;20131;-78
2023/08/09 01:46:44;;;;;;;1999.90;999.90;;;12.00;99.90;;;;;;5022318;28;20055;-76
2023/08/09 01:49:13;;;;;;;1999.90;999.90;;;12.00;99.90;;;;;;5055390;28;20056;-78
2023/08/09 01:51:39;;;;;;;1999.90;999.90;;;11.90;99.90;;;;;;5072926;28;20071;-77
2023/08/09 01:54:06;;;;;;;1999.90;999.90;;;11.90;99.90;;;;;;5072962;28;20044;-77
2023/08/09 01:56:32;;;;;;;1999.90;999.90;;;11.90;99.90;;;;;;5055594;28;20049;-77
2023/08/09 01:58:58;;;;;;;1999.90;999.90;;;11.90;99.90;;;;;;5072771;28;20127;-78
2023/08/09 02:01:24;;;;;;;1999.90;999.90;;;11.90;99.90;;;;;;5055173;28;20080;-78
2023/08/09 02:03:51;;;;;;;1999.90;999.90;;;11.90;99.90;;;;;;5073444;28;20124;-77
2023/08/09 02:06:16;;;;;;;1999.90;999.90;;;11.90;99.90;;;;;;5055261;28;20098;-78
2023/08/09 02:08:43;;;;;;;1999.90;999.90;;;11.90;99.90;;;;;;5055175;28;20056;-77
2023/08/09 02:11:08;;;;;;;1999.90;999.90;;;11.90;99.90;;;;;;5055194;28;20044;-78
2023/08/09 02:13:34;;;;;;;1999.90;999.90;;;11.90;99.90;;;;;;5054936;28;20051;-78
2023/08/09 02:16:01;;;;;;;1999.90;999.90;;;11.90;99.90;;;;;;5038770;28;20048;-79
2023/08/09 02:18:26;;;;;;;1999.90;999.90;;;11.90;99.90;;;;;;5055758;28;20036;-79
2023/08/09 02:20:52;;;;;;;1999.90;999.90;;;11.90;99.90;;;;;;5042197;28;20123;-78
2023/08/09 02:23:18;;;;;;;1999.90;999.90;;;11.90;99.90;;;;;;5076518;28;20048;-78
2023/08/09 02:25:44;;;;;;;1999.90;999.90;;;11.80;99.90;;;;;;5076690;28;20060;-79
2023/08/09 02:28:09;;;;;;;1999.90;999.90;;;11.80;99.90;;;;;;5058245;28;20060;-78
2023/08/09 02:30:35;;;;;;;1999.90;999.90;;;11.70;99.90;;;;;;5076158;28;20053;-77
2023/08/09 02:33:01;;;;;;;1999.90;999.90;;;11.70;99.90;;;;;;5058471;28;20094;-77
2023/08/09 02:35:46;;;;;;;1999.90;999.90;;;11.70;99.90;;;;;;5076302;28;20068;-77
2023/08/09 02:38:12;;;;;;;1999.90;999.90;;;11.70;99.90;;;;;;5076025;28;20054;-78
2023/08/09 02:40:37;;;;;;;1999.90;999.90;;;11.70;99.90;;;;;;5059176;28;20044;-77
2023/08/09 02:43:03;;;;;;;1999.90;999.90;;;11.60;99.90;;;;;;5076068;28;20365;-77
2023/08/09 02:45:29;;;;;;;1999.90;999.90;;;11.60;99.90;;;;;;5076345;28;20087;-77
2023/08/09 02:47:54;;;;;;;1999.90;999.90;;;11.60;99.90;;;;;;5075920;28;20049;-78
2023/08/09 02:50:20;;;;;;;1999.90;999.90;;;11.50;99.90;;;;;;5058264;28;20376;-77
2023/08/09 02:52:46;;;;;;;1999.90;999.90;;;11.50;99.90;;;;;;5041592;28;20098;-76
2023/08/09 02:55:13;;;;;;;1999.90;999.90;;;11.50;99.90;;;;;;5058419;28;20098;-77
2023/08/09 02:57:38;;;;;;;1999.90;999.90;;;11.50;99.90;;;;;;5057814;28;20476;-77
2023/08/09 03:00:06;;;;;;;1999.90;999.90;;;11.50;99.90;;;;;;5057778;28;20086;-77
2023/08/09 03:02:32;;;;;;;1999.90;999.90;;;11.50;99.90;;;;;;5058166;28;20044;-77
2023/08/09 03:05:00;;;;;;;1999.90;999.90;;;11.40;99.90;;;;;;5058152;28;20094;-77
2023/08/09 03:07:25;;;;;;;1999.90;999.90;;;11.40;99.90;;;;;;5058088;28;20434;-77
2023/08/09 03:09:51;;;;;;;1999.90;999.90;;;11.40;99.90;;;;;;5041983;28;20089;-77
2023/08/09 03:12:17;;;;;;;1999.90;999.90;;;11.40;99.90;;;;;;5041106;28;20095;-77
2023/08/09 03:14:43;;;;;;;1999.90;999.90;;;11.30;99.90;;;;;;5041327;28;20129;-77
2023/08/09 03:17:08;;;;;;;1999.90;999.90;;;11.30;99.90;;;;;;5057738;28;20040;-77
2023/08/09 03:19:34;;;;;;;1999.90;999.90;;;11.30;99.90;;;;;;5041514;28;20601;-77
2023/08/09 03:22:00;;;;;;;1999.90;999.90;;;11.30;99.90;;;;;;5057538;28;20052;-77
2023/08/09 03:24:27;;;;;;;1999.90;999.90;;;11.30;99.90;;;;;;5075336;28;20053;-77
2023/08/09 03:26:52;;;;;;;1999.90;999.90;;;11.30;99.90;;;;;;5057989;28;20114;-77
2023/08/09 03:29:18;;;;;;;1999.90;999.90;;;11.20;99.90;;;;;;5075482;28;20044;-77
2023/08/09 03:31:44;;;;;;;1999.90;999.90;;;11.30;99.90;;;;;;5057139;28;20045;-77
2023/08/09 03:34:09;;;;;;;1999.90;999.90;;;11.30;99.90;;;;;;5057697;28;20052;-77
2023/08/09 03:36:35;;;;;;;1999.90;999.90;;;11.30;99.90;;;;;;5057926;28;20055;-77
2023/08/09 03:39:01;;;;;;;1999.90;999.90;;;11.20;99.90;;;;;;5057843;28;20044;-77
2023/08/09 03:41:26;;;;;;;1999.90;999.90;;;11.20;99.90;;;;;;5074792;28;20045;-77
2023/08/09 03:43:52;;;;;;;1999.90;999.90;;;11.20;99.90;;;;;;5057686;28;20048;-76
2023/08/09 03:46:18;;;;;;;1999.90;999.90;;;11.20;99.90;;;;;;5057065;28;20041;-77
2023/08/09 03:48:44;;;;;;;1999.90;999.90;;;11.20;99.90;;;;;;5057603;28;20064;-76
2023/08/09 03:51:10;;;;;;;1999.90;999.90;;;11.20;99.90;;;;;;5040380;28;20048;-77
2023/08/09 03:53:36;;;;;;;1999.90;999.90;;;11.20;99.90;;;;;;5057160;28;20052;-76
2023/08/09 03:56:01;;;;;;;1999.90;999.90;;;11.20;99.90;;;;;;5074983;28;20044;-76
2023/08/09 03:58:27;;;;;;;1999.90;999.90;;;11.10;99.90;;;;;;5040110;28;20040;-76
2023/08/09 04:00:53;;;;;;;1999.90;999.90;;;11.10;99.90;;;;;;5074482;28;20106;-76
2023/08/09 04:03:18;;;;;;;1999.90;999.90;;;11.10;99.90;;;;;;5074819;28;20058;-77
2023/08/09 04:05:44;;;;;;;1999.90;999.90;;;11.10;99.90;;;;;;5040449;28;20126;-77
2023/08/09 04:08:10;;;;;;;1999.90;999.90;;;11.10;99.90;;;;;;5056547;28;20052;-76
2023/08/09 04:10:35;;;;;;;1999.90;999.90;;;11.10;99.90;;;;;;5056608;28;20392;-77
2023/08/09 04:13:02;;;;;;;1999.90;999.90;;;11.10;99.90;;;;;;5056554;28;20041;-76
2023/08/09 04:15:28;;;;;;;1999.90;999.90;;;11.10;99.90;;;;;;5057126;28;20060;-77
2023/08/09 04:17:54;;;;;;;1999.90;999.90;;;11.10;99.90;;;;;;5056798;28;20458;-77
2023/08/09 04:20:20;;;;;;;1999.90;999.90;;;11.10;99.90;;;;;;5056157;28;20488;-76
2023/08/09 04:22:46;;;;;;;1999.90;999.90;;;11.10;99.90;;;;;;5056488;28;20066;-76
2023/08/09 04:25:11;;;;;;;1999.90;999.90;;;11.10;99.90;;;;;;5073985;28;20099;-76
2023/08/09 04:27:39;;;;;;;1999.90;999.90;;;11.00;99.90;;;;;;5073874;28;20087;-76
2023/08/09 04:30:09;;;;;;;1999.90;999.90;;;11.00;99.90;;;;;;5056106;28;20036;-77
2023/08/09 04:32:35;;;;;;;1999.90;999.90;;;11.00;99.90;;;;;;5056163;28;20044;-76
2023/08/09 04:35:01;;;;;;;1999.90;999.90;;;11.00;99.90;;;;;;5057137;28;20131;-76
2023/08/09 04:37:27;;;;;;;1999.90;999.90;;;11.00;99.90;;;;;;5040327;28;20495;-76
2023/08/09 04:39:54;;;;;;;1999.90;999.90;;;11.00;99.90;;;;;;5073742;28;20048;-76
2023/08/09 04:42:19;;;;;;;1999.90;999.90;;;11.00;99.90;;;;;;5073307;28;20044;-77
2023/08/09 04:44:45;;;;;;;1999.90;999.90;;;11.00;99.90;;;;;;5073546;28;20051;-77
2023/08/09 04:47:12;;;;;;;1999.90;999.90;;;11.10;99.90;;;;;;5073795;28;20051;-77
2023/08/09 04:49:37;;;;;;;1999.90;999.90;;;11.10;99.90;;;;;;5039315;28;20134;-77
2023/08/09 04:52:04;;;;;;;1999.90;999.90;;;11.10;99.90;;;;;;5039245;28;20103;-76
2023/08/09 04:54:29;;;;;;;1999.90;999.90;;;11.10;99.90;;;;;;5073558;28;20127;-76
2023/08/09 04:56:55;;;;;;;1999.90;999.90;;;11.10;99.90;;;;;;5073644;28;20135;-76
2023/08/09 04:59:21;;;;;;;1999.90;999.90;;;11.10;99.90;;;;;;5055745;28;20090;-76
2023/08/09 05:01:47;;;;;;;1999.90;999.90;;;11.20;99.90;;;;;;5055387;28;20051;-77
2023/08/09 05:04:13;;;;;;;1999.90;999.90;;;11.20;99.90;;;;;;5073651;28;20442;-77
2023/08/09 05:06:40;;;;;;;1999.90;999.90;;;11.20;99.90;;;;;;5074138;28;20044;-77
2023/08/09 05:09:05;;;;;;;1999.90;999.90;;;11.20;99.90;;;;;;5039043;28;20514;-77
2023/08/09 05:11:31;;;;;;;1999.90;999.90;;;11.30;99.90;;;;;;5073404;28;20135;-77
2023/08/09 05:13:57;;;;;;;1999.90;999.90;;;11.30;99.90;;;;;;5073516;28;20131;-76
2023/08/09 05:16:25;;;;;;;1999.90;999.90;;;11.40;99.90;;;;;;5039882;28;20122;-76
2023/08/09 05:18:52;;;;;;;1999.90;999.90;;;11.40;99.90;;;;;;5055871;28;20052;-77
2023/08/09 05:21:18;;;;;;;1999.90;999.90;;;11.50;99.90;;;;;;5074259;28;20044;-77
2023/08/09 05:23:43;;;;;;;1999.90;999.90;;;11.50;99.90;;;;;;5055582;28;20036;-77
2023/08/09 05:26:09;;;;;;;1999.90;999.90;;;11.60;99.90;;;;;;5056233;28;20139;-77
2023/08/09 05:28:35;;;;;;;1999.90;999.90;;;11.60;99.90;;;;;;5073244;28;20041;-77
2023/08/09 05:31:00;;;;;;;1999.90;999.90;;;11.70;99.90;;;;;;5056283;28;20045;-76
2023/08/09 05:33:26;;;;;;;1999.90;999.90;;;11.70;99.90;;;;;;5055692;28;20091;-76
2023/08/09 05:35:52;;;;;;;1999.90;999.90;;;11.80;99.90;;;;;;5038902;28;20052;-76
2023/08/09 05:38:17;;;;;;;1999.90;999.90;;;11.80;99.90;;;;;;5056247;28;20094;-77
2023/08/09 05:40:43;;;;;;;1999.90;999.90;;;11.90;99.90;;;;;;5056371;28;20117;-77
2023/08/09 05:43:09;;;;;;;1999.90;999.90;;;12.00;99.90;;;;;;5055542;28;20044;-77
2023/08/09 05:45:34;;;;;;;1999.90;999.90;;;12.00;99.90;;;;;;5038950;28;20048;-77
2023/08/09 05:48:00;;;;;;;1999.90;999.90;;;12.10;99.90;;;;;;5055433;28;20044;-77
2023/08/09 05:50:26;;;;;;;1999.90;999.90;;;12.20;99.90;;;;;;5073521;28;20048;-77
2023/08/09 05:52:52;;;;;;;1999.90;999.90;;;12.20;99.90;;;;;;5055433;28;20536;-77
2023/08/09 05:55:17;;;;;;;1999.90;999.90;;;12.30;99.90;;;;;;5042642;28;20044;-77
2023/08/09 05:57:43;;;;;;;1999.90;999.90;;;12.40;99.90;;;;;;5059147;28;20510;-77
2023/08/09 06:00:15;;;;;;;1999.90;999.90;;;12.50;99.90;;;;;;5058722;28;20127;-78
2023/08/09 06:02:43;;;;;;;1999.90;999.90;;;12.50;99.90;;;;;;5059834;28;20056;-76
2023/08/09 06:05:14;;;;;;;1999.90;999.90;;;12.70;99.90;;;;;;5043209;28;20052;-77
2023/08/09 06:07:40;;;;;;;1999.90;999.90;;;12.70;99.90;;;;;;5060453;28;20044;-77
2023/08/09 06:10:06;;;;;;;1999.90;999.90;;;12.80;99.90;;;;;;5042478;28;20512;-79
2023/08/09 06:12:31;;;;;;;1999.90;999.90;;;12.90;99.90;;;;;;5076595;28;20136;-78
2023/08/09 06:14:57;;;;;;;1999.90;999.90;;;12.90;99.90;;;;;;5077100;28;20094;-77
2023/08/09 06:17:23;;;;;;;1999.90;999.90;;;13.00;99.90;;;;;;5058832;28;20041;-77
2023/08/09 06:19:48;;;;;;;1999.90;999.90;;;13.10;99.90;;;;;;5076886;28;20036;-78
2023/08/09 06:22:14;;;;;;;1999.90;999.90;;;13.10;99.90;;;;;;5077196;28;20045;-77
2023/08/09 06:24:40;;;;;;;1999.90;999.90;;;13.20;99.90;;;;;;5058764;28;20052;-77
2023/08/09 06:27:05;;;;;;;1999.90;999.90;;;13.30;99.90;;;;;;5042314;28;20488;-77
2023/08/09 06:29:32;;;;;;;1999.90;999.90;;;13.40;99.90;;;;;;5042509;28;20048;-78
2023/08/09 06:31:58;;;;;;;1999.90;999.90;;;13.50;99.90;;;;;;5076525;28;20545;-77
2023/08/09 06:34:24;;;;;;;1999.90;999.90;;;13.60;99.90;;;;;;5059289;28;20048;-77
2023/08/09 06:36:50;;;;;;;1999.90;999.90;;;13.60;99.90;;;;;;5076104;28;20044;-77
2023/08/09 06:39:15;;;;;;;1999.90;999.90;;;13.80;99.90;;;;;;5058167;28;20060;-77
2023/08/09 06:41:41;;;;;;;1999.90;999.90;;;13.80;99.90;;;;;;5058142;28;20041;-77
2023/08/09 06:44:07;;;;;;;1999.90;999.90;;;13.90;99.90;;;;;;5075923;28;20430;-78
2023/08/09 06:46:33;;;;;;;1999.90;999.90;;;14.00;99.90;;;;;;5058488;28;20040;-77
2023/08/09 06:48:59;;;;;;;1999.90;999.90;;;14.00;99.90;;;;;;5075864;28;20040;-77
2023/08/09 06:51:24;;;;;;;1999.90;999.90;;;14.10;99.90;;;;;;5076555;28;20097;-77
2023/08/09 06:53:50;;;;;;;1999.90;999.90;;;14.20;99.90;;;;;;5058208;28;20472;-77
2023/08/09 06:56:16;;;;;;;1999.90;999.90;;;14.30;99.90;;;;;;5041387;28;20044;-78
2023/08/09 06:58:42;;;;;;;1999.90;999.90;;;14.30;99.90;;;;;;5057915;28;20049;-78
2023/08/09 07:01:09;;;;;;;1999.90;999.90;;;14.50;99.90;;;;;;5057815;28;20091;-79
2023/08/09 07:03:35;;;;;;;1999.90;999.90;;;14.50;99.90;;;;;;5075427;28;20526;-78
2023/08/09 07:06:02;;;;;;;1999.90;999.90;;;14.70;99.90;;;;;;5058436;28;20134;-77
2023/08/09 07:08:28;;;;;;;1999.90;999.90;;;14.80;99.90;;;;;;5075535;28;20502;-78
2023/08/09 07:10:55;;;;;;;1999.90;999.90;;;14.80;99.90;;;;;;5076175;28;20127;-77
2023/08/09 07:13:21;;;;;;;1999.90;999.90;;;14.90;99.90;;;;;;5057884;28;20052;-78
2023/08/09 07:15:47;;;;;;;1999.90;999.90;;;15.00;99.90;;;;;;5057747;28;20093;-77
2023/08/09 07:18:13;;;;;;;1999.90;999.90;;;15.00;99.90;;;;;;5041340;28;20538;-76
2023/08/09 07:20:38;;;;;;;1999.90;999.90;;;15.10;99.90;;;;;;5041103;28;20071;-80
2023/08/09 07:23:04;;;;;;;1999.90;999.90;;;15.20;99.90;;;;;;5040949;28;20048;-78
2023/08/09 07:25:30;;;;;;;1999.90;999.90;;;15.30;99.90;;;;;;5075813;28;20060;-78
2023/08/09 07:27:55;;;;;;;1999.90;999.90;;;15.30;99.90;;;;;;5057291;28;20491;-78
2023/08/09 07:30:21;;;;;;;1999.90;999.90;;;15.40;99.90;;;;;;5075118;28;20123;-79
2023/08/09 07:32:47;;;;;;;1999.90;999.90;;;15.40;99.90;;;;;;5057499;28;20091;-78
2023/08/09 07:35:13;;;;;;;1999.90;999.90;;;15.50;99.90;;;;;;5057535;28;20048;-78
2023/08/09 07:37:41;;;;;;;1999.90;999.90;;;15.60;99.90;;;;;;5058418;28;20101;-78
2023/08/09 07:40:09;;;;;;;1999.90;999.90;;;15.60;99.90;;;;;;5075295;28;20040;-78
2023/08/09 07:42:35;;;;;;;1999.90;999.90;;;15.70;99.90;;;;;;5057288;28;20056;-78
2023/08/09 07:45:03;;;;;;;1999.90;999.90;;;15.80;99.90;;;;;;5074935;28;20101;-80
2023/08/09 07:47:29;;;;;;;1999.90;999.90;;;15.80;99.90;;;;;;5075438;28;20123;-77
2023/08/09 07:49:55;;;;;;;1999.90;999.90;;;15.90;99.90;;;;;;5040283;28;20133;-79
2023/08/09 07:52:20;;;;;;;1999.90;999.90;;;15.90;99.90;;;;;;5057040;28;20040;-81
2023/08/09 07:54:46;;;;;;;1999.90;999.90;;;16.00;99.90;;;;;;5057018;28;20055;-81
2023/08/09 07:57:12;;;;;;;1999.90;999.90;;;16.00;99.90;;;;;;5040390;28;20076;-79
2023/08/09 07:59:38;;;;;;;1999.90;999.90;;;16.10;99.90;;;;;;5074429;28;20047;-80
2023/08/09 08:02:04;;;;;;;1999.90;999.90;;;16.20;99.90;;;;;;5056938;28;20052;-80
2023/08/09 08:04:30;;;;;;;1999.90;999.90;;;16.30;99.90;;;;;;5056907;28;20048;-80
2023/08/09 08:06:56;;;;;;;1999.90;999.90;;;16.30;99.90;;;;;;5056870;28;20376;-78
2023/08/09 08:09:23;;;;;;;1999.90;999.90;;;16.30;99.90;;;;;;5074315;28;20052;-78
2023/08/09 08:11:49;;;;;;;1999.90;999.90;;;16.40;99.90;;;;;;5074824;28;20102;-78
2023/08/09 08:14:15;;;;;;;1999.90;999.90;;;16.50;99.90;;;;;;5056653;28;20052;-77
2023/08/09 08:16:40;;;;;;;1999.90;999.90;;;16.50;99.90;;;;;;5039683;28;20053;-77
2023/08/09 08:19:08;;;;;;;1999.90;999.90;;;16.50;99.90;;;;;;5074273;28;20048;-82
2023/08/09 08:21:34;;;;;;;1999.90;999.90;;;16.60;99.90;;;;;;5074730;28;20396;-80
2023/08/09 08:24:00;;;;;;;1999.90;999.90;;;16.70;99.90;;;;;;5073808;28;20060;-77
2023/08/09 08:26:26;;;;;;;1999.90;999.90;;;16.80;99.90;;;;;;5057123;28;20117;-79
2023/08/09 08:28:52;;;;;;;1999.90;999.90;;;16.80;99.90;;;;;;5057155;28;20087;-77
2023/08/09 08:31:20;;;;;;;1999.90;999.90;;;16.80;99.90;;;;;;5074104;28;20049;-79
2023/08/09 08:33:49;;;;;;;1999.90;999.90;;;16.80;99.90;;;;;;5056670;28;20141;-79
2023/08/09 08:36:18;;;;;;;1999.90;999.90;;;16.90;99.90;;;;;;5074118;28;20084;-78
2023/08/09 08:38:43;;;;;;;1999.90;999.90;;;17.00;99.90;;;;;;5073659;28;20127;-77
2023/08/09 08:41:10;;;;;;;1999.90;999.90;;;17.00;99.90;;;;;;5074061;28;20145;-77
2023/08/09 08:43:37;;;;;;;1999.90;999.90;;;17.20;99.90;;;;;;5056454;28;20048;-77
2023/08/09 08:46:07;;;;;;;1999.90;999.90;;;17.20;99.90;;;;;;5074534;28;20048;-78
2023/08/09 08:48:33;;;;;;;1999.90;999.90;;;17.30;99.90;;;;;;5074458;28;20480;-77
2023/08/09 08:51:01;;;;;;;1999.90;999.90;;;17.40;99.90;;;;;;5056027;28;20395;-77
2023/08/09 08:53:28;;;;;;;1999.90;999.90;;;17.40;99.90;;;;;;5073880;28;20519;-79
2023/08/09 08:55:54;;;;;;;1999.90;999.90;;;17.50;99.90;;;;;;5073641;28;20123;-76
2023/08/09 08:58:20;;;;;;;1999.90;999.90;;;17.50;99.90;;;;;;5056904;28;20385;-79
2023/08/09 09:00:46;;;;;;;1999.90;999.90;;;17.50;99.90;;;;;;5039673;28;20051;-83
2023/08/09 09:03:13;;;;;;;1999.90;999.90;;;17.50;99.90;;;;;;5056299;28;20492;-78
2023/08/09 09:05:39;;;;;;;1999.90;999.90;;;17.50;99.90;;;;;;5056197;28;20533;-81
2023/08/09 09:08:05;;;;;;;1999.90;999.90;;;17.50;99.90;;;;;;5040139;28;20045;-82
2023/08/09 09:10:31;;;;;;;1999.90;999.90;;;17.60;99.90;;;;;;5055886;28;20049;-82
2023/08/09 09:12:57;;;;;;;1999.90;999.90;;;17.70;99.90;;;;;;5056736;28;20123;-80
2023/08/09 09:15:24;;;;;;;1999.90;999.90;;;17.80;99.90;;;;;;5056834;28;20110;-81
2023/08/09 09:17:49;;;;;;;1999.90;999.90;;;17.80;99.90;;;;;;5039353;28;20123;-85
2023/08/09 09:20:23;;;;;;;1999.90;999.90;;;17.80;99.90;;;;;;5039654;28;20140;-78
2023/08/09 09:22:50;;;;;;;1999.90;999.90;;;17.80;99.90;;;;;;5057033;28;20400;-83
2023/08/09 09:25:17;;;;;;;1999.90;999.90;;;17.80;99.90;;;;;;5038824;28;20053;-80
2023/08/09 09:27:47;;;;;;;1999.90;999.90;;;17.90;99.90;;;;;;5076010;28;20052;-83
2023/08/09 09:30:13;;;;;;;1999.90;999.90;;;17.90;99.90;;;;;;5060041;28;20044;-85
2023/08/09 09:33:03;;;;;;;1999.90;999.90;;;18.00;99.90;;;;;;5078001;28;20089;-91
2023/08/09 09:35:32;;;;;;;1999.90;999.90;;;17.90;99.90;;;;;;5044061;28;20048;-80
2023/08/09 09:37:59;;;;;;;1999.90;999.90;;;17.90;99.90;;;;;;5060334;28;20046;-83
2023/08/09 09:40:33;;;;;;;1999.90;999.90;;;17.90;99.90;;;;;;5059137;28;20044;-84
2023/08/09 09:43:01;;;;;;;1999.90;999.90;;;17.90;99.90;;;;;;5043150;28;20041;-82
2023/08/09 09:45:29;;;;;;;1999.90;999.90;;;18.00;99.90;;;;;;5059680;28;20084;-81
2023/08/09 09:47:57;;;;;;;1999.90;999.90;;;18.10;99.90;;;;;;5077352;28;20130;-85
2023/08/09 09:50:28;;;;;;;1999.90;999.90;;;18.10;99.90;;;;;;5042804;28;20479;-82
2023/08/09 09:52:54;;;;;;;1999.90;999.90;;;18.10;99.90;;;;;;5043149;28;20146;-82
2023/08/09 09:55:25;;;;;;;1999.90;999.90;;;18.30;99.90;;;;;;5060175;28;20048;-83
2023/08/09 09:57:52;;;;;;;1999.90;999.90;;;18.10;99.90;;;;;;5059728;28;20094;-83
2023/08/09 10:00:21;;;;;;;1999.90;999.90;;;18.10;99.90;;;;;;5059044;28;20044;-83
2023/08/09 10:02:51;;;;;;;1999.90;999.90;;;18.10;99.90;;;;;;5059191;28;20411;-82
2023/08/09 10:05:35;;;;;;;1999.90;999.90;;;18.20;99.90;;;;;;5059057;28;20107;-84
2023/08/09 10:08:06;;;;;;;1999.90;999.90;;;18.30;99.90;;;;;;5077810;28;20121;-84
2023/08/09 10:10:33;;;;;;;1999.90;999.90;;;18.30;99.90;;;;;;5059593;28;20044;-86
2023/08/09 10:13:02;;;;;;;1999.90;999.90;;;18.30;99.90;;;;;;5060018;28;20080;-86
2023/08/09 10:15:32;;;;;;;1999.90;999.90;;;18.30;99.90;;;;;;5058907;28;20055;-84
2023/08/09 10:18:05;;;;;;;1999.90;999.90;;;18.20;99.90;;;;;;5059498;28;20049;-84
2023/08/09 10:20:32;;;;;;;1999.90;999.90;;;18.20;99.90;;;;;;5076545;28;20044;-84
2023/08/09 10:22:58;;;;;;;1999.90;999.90;;;18.10;99.90;;;;;;5059279;28;20448;-83
2023/08/09 10:25:43;;;;;;;1999.90;999.90;;;18.10;99.90;;;;;;5058343;28;20132;-84
2023/08/09 10:28:09;;;;;;;1999.90;999.90;;;18.10;99.90;;;;;;5077112;28;20060;-87
2023/08/09 10:30:48;;;;;;;1999.90;999.90;;;18.20;99.90;;;;;;5024968;28;20070;-80
2023/08/09 10:33:18;;;;;;;1999.90;999.90;;;18.40;99.90;;;;;;5076764;28;20048;-84
2023/08/09 10:35:51;;;;;;;1999.90;999.90;;;18.40;99.90;;;;;;5059633;28;20091;-82
2023/08/09 10:38:20;;;;;;;1999.90;999.90;;;18.50;99.90;;;;;;5058625;28;20075;-80
2023/08/09 10:40:55;;;;;;;1999.90;999.90;;;18.50;99.90;;;;;;5041252;28;20048;-84
2023/08/09 10:43:23;;;;;;;1999.90;999.90;;;18.50;99.90;;;;;;5042884;28;20420;-80
2023/08/09 10:45:51;;;;;;;1999.90;999.90;;;18.50;99.90;;;;;;5059430;28;20125;-84
2023/08/09 10:48:26;;;;;;;1999.90;999.90;;;18.50;99.90;;;;;;5076190;28;20195;-84
2023/08/09 10:51:18;;;;;;;1999.90;999.90;;;18.50;99.90;;;;;;5058390;28;20056;-85
2023/08/09 10:54:04;;;;;;;1999.90;999.90;;;18.70;99.90;;;;;;5059067;28;20102;-83
2023/08/09 10:56:42;;;;;;;1999.90;999.90;;;18.70;99.90;;;;;;5076257;28;20084;-82
2023/08/09 10:59:27;;;;;;;1999.90;999.90;;;18.90;99.90;;;;;;5059098;28;20047;-81
2023/08/09 11:01:54;;;;;;;1999.90;999.90;;;19.00;99.90;;;;;;5060419;28;20080;-81
2023/08/09 11:04:20;;;;;;;1999.90;999.90;;;19.10;99.90;;;;;;5080012;28;20048;-80
2023/08/09 11:06:50;;;;;;;1999.90;999.90;;;19.10;99.90;;;;;;5060510;28;20450;-80
2023/08/09 11:09:23;;;;;;;1999.90;999.90;;;19.20;99.90;;;;;;5058269;28;20063;-83
2023/08/09 11:11:51;;;;;;;1999.90;999.90;;;19.30;99.90;;;;;;5057966;28;20060;-82
2023/08/09 11:14:18;;;;;;;1999.90;999.90;;;19.30;99.90;;;;;;5058447;28;20040;-78
2023/08/09 11:16:45;;;;;;;1999.90;999.90;;;19.30;99.90;;;;;;5042518;28;20056;-81
2023/08/09 11:19:17;;;;;;;1999.90;999.90;;;19.30;99.90;;;;;;5058719;28;20174;-83
2023/08/09 11:21:51;;;;;;;1999.90;999.90;;;19.30;99.90;;;;;;5076176;28;20041;-75
2023/08/09 11:24:20;;;;;;;1999.90;999.90;;;19.20;99.90;;;;;;5058360;28;20186;-80
2023/08/09 11:26:49;;;;;;;1999.90;999.90;;;19.10;99.90;;;;;;5041146;28;20079;-83
2023/08/09 11:29:19;;;;;;;1999.90;999.90;;;19.00;99.90;;;;;;5058192;28;20052;-82
2023/08/09 11:31:48;;;;;;;1999.90;999.90;;;19.00;99.90;;;;;;5075551;28;20050;-84
2023/08/09 11:34:16;;;;;;;1999.90;999.90;;;19.10;99.90;;;;;;5058835;28;20127;-82
2023/08/09 11:36:43;;;;;;;1999.90;999.90;;;19.20;99.90;;;;;;5058693;28;20062;-80
2023/08/09 11:39:10;;;;;;;1999.90;999.90;;;19.20;99.90;;;;;;5057353;28;20036;-81
2023/08/09 11:41:56;;;;;;;1999.90;999.90;;;19.20;99.90;;;;;;5075155;28;20052;-83
2023/08/09 11:44:31;;;;;;;1999.90;999.90;;;19.10;99.90;;;;;;5057520;28;20045;-79
2023/08/09 11:46:59;;;;;;;1999.90;999.90;;;19.10;99.90;;;;;;5057527;28;20036;-84
2023/08/09 11:49:29;;;;;;;1999.90;999.90;;;19.20;99.90;;;;;;5057440;28;20056;-83
2023/08/09 11:51:55;;;;;;;1999.90;999.90;;;19.10;99.90;;;;;;5056856;28;20480;-81
2023/08/09 11:54:22;;;;;;;1999.90;999.90;;;19.20;99.90;;;;;;5058073;28;20040;-82
2023/08/09 11:56:49;;;;;;;1999.90;999.90;;;19.20;99.90;;;;;;5040720;28;20484;-79
2023/08/09 11:59:19;;;;;;;1999.90;999.90;;;19.30;99.90;;;;;;5040477;28;20048;-80